Gomera — V2GM4 — position and weather

sailwx.info

Track history (hours):
 
Tides and Currents Weather Stations Pressure Air Temp Water Temp Dewpoint Dewpoint Depression Visibility Wind Speed Wind Dir Waves Ship Positions

Gomera

Last reported at 2018-Jan-12 13:25 UTC. Time now 2018-Jan-22 12:38 UTC.
Position N 37°39' E 016°16'.
Warning: this ship's position is 9 days out of date.

Length 106 m; draft 6.4 m.

Type: Cargo ship. MMSI: 305996000.

Date/timePositionNaut miles runAvg speedWind from/ knotsBaromVisibWave heightAir tempDewpointWater temp
2018-Jan-12 13:25N 37°39' E 016°16'  
2018-Jan-08 01:13N 36°20' W 002°20'2 9.7
2018-Jan-08 01:00N 36°20' W 002°23'5 9.9
2018-Jan-08 00:30N 36°19' W 002°29'5 9.8
2018-Jan-08 00:00N 36°18' W 002°35'5 9.8
2018-Jan-07 23:30N 36°17' W 002°41'5 9.9
2018-Jan-07 23:00N 36°16' W 002°47'5 9.4
2018-Jan-07 22:30N 36°15' W 002°52'11610.0
2018-Jan-07 10:53N 35°56' W 005°14'3 8.7
2018-Jan-07 10:30N 35°55' W 005°18'1 1.9
2018-Jan-07 10:00N 35°54' W 005°18'0 0.0
2018-Jan-07 09:30N 35°54' W 005°18'0 0.0
2018-Jan-07 09:00N 35°54' W 005°18'0 0.0
2018-Jan-07 08:30N 35°54' W 005°18'0 0.0
2018-Jan-07 08:00N 35°54' W 005°18'0 0.0
2018-Jan-07 07:30N 35°54' W 005°18'0 0.0
2018-Jan-07 07:00N 35°54' W 005°18'0 0.7
2018-Jan-07 06:30N 35°54' W 005°19'1 1.8
2018-Jan-07 06:00N 35°55' W 005°19'1 1.7
2018-Jan-07 05:30N 35°55' W 005°20'0 0.5
2018-Jan-07 05:01N 35°55' W 005°20'1 2.4
2018-Jan-07 04:30N 35°56' W 005°20'4 8.0
2018-Jan-07 04:00N 35°57' W 005°25'269 8.6
2018-Jan-05 20:34N 38°31' W 010°02'7 9.6
2018-Jan-05 19:50N 38°38' W 010°04'3 9.6
2018-Jan-05 19:30N 38°41' W 010°05'5 9.5
2018-Jan-05 19:00N 38°46' W 010°05'5 9.6
2018-Jan-05 18:30N 38°51' W 010°05'5 9.4
2018-Jan-05 18:00N 38°56' W 010°05'5 9.4
2018-Jan-05 17:30N 39°00' W 010°05'5 9.1
2018-Jan-05 17:00N 39°05' W 010°05'4 9.0
2018-Jan-05 16:30N 39°09' W 010°05'4 8.2
2018-Jan-05 16:00N 39°13' W 010°05'  
Track history (hours):
 
Tides and Currents Weather Stations Pressure Air Temp Water Temp Dewpoint Dewpoint Depression Visibility Wind Speed Wind Dir Waves Ship Positions

Gomera

Last reported at 2018-Jan-12 13:25 UTC. Time now 2018-Jan-22 12:38 UTC.
Position N 37°39' E 016°16'.
Warning: this ship's position is 9 days out of date.

Length 106 m; draft 6.4 m.

Type: Cargo ship. MMSI: 305996000.

Date/timePositionNaut miles runAvg speedWind from/ knotsBaromVisibWave heightAir tempDewpointWater temp
2018-Jan-12 13:25N 37°39' E 016°16'  
2018-Jan-08 01:13N 36°20' W 002°20'2 9.7
2018-Jan-08 01:00N 36°20' W 002°23'5 9.9
2018-Jan-08 00:30N 36°19' W 002°29'5 9.8
2018-Jan-08 00:00N 36°18' W 002°35'5 9.8
2018-Jan-07 23:30N 36°17' W 002°41'5 9.9
2018-Jan-07 23:00N 36°16' W 002°47'5 9.4
2018-Jan-07 22:30N 36°15' W 002°52'11610.0
2018-Jan-07 10:53N 35°56' W 005°14'3 8.7
2018-Jan-07 10:30N 35°55' W 005°18'1 1.9
2018-Jan-07 10:00N 35°54' W 005°18'0 0.0
2018-Jan-07 09:30N 35°54' W 005°18'0 0.0
2018-Jan-07 09:00N 35°54' W 005°18'0 0.0
2018-Jan-07 08:30N 35°54' W 005°18'0 0.0
2018-Jan-07 08:00N 35°54' W 005°18'0 0.0
2018-Jan-07 07:30N 35°54' W 005°18'0 0.0
2018-Jan-07 07:00N 35°54' W 005°18'0 0.7
2018-Jan-07 06:30N 35°54' W 005°19'1 1.8
2018-Jan-07 06:00N 35°55' W 005°19'1 1.7
2018-Jan-07 05:30N 35°55' W 005°20'0 0.5
2018-Jan-07 05:01N 35°55' W 005°20'1 2.4
2018-Jan-07 04:30N 35°56' W 005°20'4 8.0
2018-Jan-07 04:00N 35°57' W 005°25'269 8.6
2018-Jan-05 20:34N 38°31' W 010°02'7 9.6
2018-Jan-05 19:50N 38°38' W 010°04'3 9.6
2018-Jan-05 19:30N 38°41' W 010°05'5 9.5
2018-Jan-05 19:00N 38°46' W 010°05'5 9.6
2018-Jan-05 18:30N 38°51' W 010°05'5 9.4
2018-Jan-05 18:00N 38°56' W 010°05'5 9.4
2018-Jan-05 17:30N 39°00' W 010°05'5 9.1
2018-Jan-05 17:00N 39°05' W 010°05'4 9.0
2018-Jan-05 16:30N 39°09' W 010°05'4 8.2
2018-Jan-05 16:00N 39°13' W 010°05'  

Dump ship's entire track history